createdAt,value
2018-06-03T00:03:38.151Z,19.26
2018-06-03T00:08:41.260Z,19.13
2018-06-03T00:13:44.546Z,19.19
2018-06-03T00:18:50.115Z,19.25
2018-06-03T00:23:53.612Z,19.21
2018-06-03T00:28:56.867Z,19.23
2018-06-03T00:33:59.973Z,19.24
2018-06-03T00:39:04.394Z,19.22
2018-06-03T00:44:07.680Z,19.18
2018-06-03T00:49:10.810Z,19.26
2018-06-03T00:54:14.216Z,19.34
2018-06-03T00:59:17.606Z,19.28
2018-06-03T01:04:21.256Z,19.33
2018-06-03T01:09:25.591Z,19.30
2018-06-03T01:14:28.719Z,19.35
2018-06-03T01:19:32.456Z,19.35
2018-06-03T01:24:35.521Z,19.32
2018-06-03T01:29:38.660Z,19.29
2018-06-03T01:34:41.801Z,19.27
2018-06-03T01:39:44.971Z,19.21
2018-06-03T01:44:48.350Z,19.19
2018-06-03T01:49:51.557Z,19.20
2018-06-03T01:54:54.766Z,19.18
2018-06-03T01:59:58.550Z,19.16
2018-06-03T02:05:01.691Z,19.12
2018-06-03T02:10:04.905Z,18.99
2018-06-03T02:15:08.160Z,19.00
2018-06-03T02:20:11.219Z,18.92
2018-06-03T02:25:14.825Z,18.93
2018-06-03T02:30:18.076Z,18.88
2018-06-03T02:35:21.241Z,18.92
2018-06-03T02:40:24.542Z,18.88
2018-06-03T02:45:27.681Z,18.86
2018-06-03T02:50:30.807Z,18.81
2018-06-03T02:55:33.923Z,18.81
2018-06-03T03:00:38.147Z,18.76
2018-06-03T03:05:41.637Z,18.54
2018-06-03T03:10:44.874Z,18.41
2018-06-03T03:15:48.404Z,18.35
2018-06-03T03:20:51.530Z,18.43
2018-06-03T03:25:54.735Z,18.31
2018-06-03T03:30:58.024Z,18.33
2018-06-03T03:36:01.170Z,18.28
2018-06-03T03:41:04.274Z,18.20
2018-06-03T03:46:07.428Z,18.19
2018-06-03T03:51:10.499Z,18.14
2018-06-03T03:56:13.893Z,18.19
2018-06-03T04:01:17.148Z,18.24
2018-06-03T04:06:20.294Z,18.25
2018-06-03T04:11:23.607Z,18.31
2018-06-03T04:16:27.077Z,18.29
2018-06-03T04:21:30.273Z,18.30
2018-06-03T04:26:33.440Z,18.25
2018-06-03T04:31:36.498Z,18.22
2018-06-03T04:36:39.606Z,18.25
2018-06-03T04:41:42.757Z,18.29
2018-06-03T04:46:46.330Z,18.21
2018-06-03T04:51:49.689Z,18.18
2018-06-03T04:56:52.884Z,18.24
2018-06-03T05:01:56.206Z,18.32
2018-06-03T05:06:59.383Z,18.27
2018-06-03T05:12:02.624Z,18.21
2018-06-03T05:17:05.684Z,18.28
2018-06-03T05:22:08.937Z,18.32
2018-06-03T05:27:12.065Z,18.30
2018-06-03T05:32:15.686Z,18.39
2018-06-03T05:37:19.026Z,18.30
2018-06-03T05:42:22.394Z,18.39
2018-06-03T05:47:25.639Z,18.46
2018-06-03T05:52:28.711Z,18.59
2018-06-03T05:57:31.944Z,18.69
2018-06-03T06:02:35.006Z,18.61
2018-06-03T06:07:38.162Z,18.45
2018-06-03T06:12:41.288Z,18.62
2018-06-03T06:17:44.554Z,18.72
2018-06-03T06:22:47.931Z,18.77
2018-06-03T06:27:51.164Z,18.76
2018-06-03T06:32:54.305Z,18.68
2018-06-03T06:37:57.714Z,18.66
2018-06-03T06:43:00.980Z,18.88
2018-06-03T06:48:05.247Z,18.81
2018-06-03T06:53:08.584Z,18.88
2018-06-03T06:58:11.791Z,18.88
2018-06-03T07:03:15.007Z,19.06
2018-06-03T07:08:18.669Z,18.88
2018-06-03T07:13:21.972Z,18.73
2018-06-03T07:18:26.500Z,18.73
2018-06-03T07:23:29.596Z,18.76
2018-06-03T07:28:33.048Z,18.72
2018-06-03T07:33:36.130Z,18.75
2018-06-03T07:38:39.251Z,18.74
2018-06-03T07:43:42.452Z,18.90
2018-06-03T07:48:49.123Z,18.95
2018-06-03T07:53:52.462Z,18.99
2018-06-03T07:58:55.645Z,19.05
2018-06-03T08:03:58.781Z,19.07
2018-06-03T08:09:01.910Z,19.07
2018-06-03T08:14:05.022Z,19.13
2018-06-03T08:19:08.172Z,19.12
2018-06-03T08:24:11.296Z,19.16
2018-06-03T08:29:14.624Z,19.20
2018-06-03T08:34:17.945Z,19.29
2018-06-03T08:39:22.236Z,19.28
2018-06-03T08:44:25.465Z,19.24
2018-06-03T08:49:28.592Z,19.35
2018-06-03T08:54:31.724Z,19.33
2018-06-03T08:59:34.782Z,19.58
2018-06-03T09:04:38.092Z,19.50
2018-06-03T09:09:41.381Z,19.65
2018-06-03T09:14:44.877Z,19.78
2018-06-03T09:19:48.113Z,19.77
2018-06-03T09:24:51.302Z,19.79
2018-06-03T09:29:54.533Z,19.55
2018-06-03T09:34:57.679Z,19.44
2018-06-03T09:40:00.723Z,19.36
2018-06-03T09:45:03.910Z,19.38
2018-06-03T09:50:07.214Z,19.61
2018-06-03T09:55:10.263Z,19.90
2018-06-03T10:00:13.526Z,19.62
2018-06-03T10:05:17.171Z,19.61
2018-06-03T10:10:20.739Z,19.76
2018-06-03T10:15:24.047Z,19.68
2018-06-03T10:20:27.171Z,19.90
2018-06-03T10:25:30.604Z,20.12
2018-06-03T10:30:33.739Z,20.35
2018-06-03T10:35:36.845Z,20.32
2018-06-03T10:40:39.896Z,20.76
2018-06-03T10:45:43.189Z,22.75
2018-06-03T10:50:46.812Z,22.26
2018-06-03T10:55:50.396Z,21.68
2018-06-03T11:00:53.780Z,21.08
2018-06-03T11:05:58.871Z,21.59
2018-06-03T11:11:02.112Z,23.08
2018-06-03T11:16:05.314Z,23.14
2018-06-03T11:21:09.045Z,22.96
2018-06-03T11:26:12.189Z,23.71
2018-06-03T11:31:15.942Z,24.41
2018-06-03T11:36:19.311Z,24.60
2018-06-03T11:41:22.711Z,24.24
2018-06-03T11:46:25.813Z,23.06
2018-06-03T11:51:28.999Z,23.90
2018-06-03T11:56:43.305Z,24.02
2018-06-03T12:01:46.641Z,25.38
2018-06-03T12:06:49.866Z,26.35
2018-06-03T12:11:53.115Z,26.20
2018-06-03T12:16:56.296Z,25.68
2018-06-03T12:21:59.528Z,26.89
2018-06-03T12:27:02.726Z,26.77
2018-06-03T12:32:06.023Z,27.61
2018-06-03T12:37:09.104Z,26.55
2018-06-03T12:42:12.263Z,26.62
2018-06-03T12:47:16.228Z,27.66
2018-06-03T12:52:19.570Z,26.78
2018-06-03T12:57:22.770Z,27.51
2018-06-03T13:02:25.923Z,27.41
2018-06-03T13:07:29.052Z,26.69
2018-06-03T13:12:32.295Z,27.51
2018-06-03T13:17:35.523Z,27.46
2018-06-03T13:22:38.678Z,25.79
2018-06-03T13:27:42.754Z,24.76
2018-06-03T13:32:46.040Z,25.02
2018-06-03T13:37:49.409Z,25.52
2018-06-03T13:42:52.635Z,26.27
2018-06-03T13:47:55.784Z,25.81
2018-06-03T13:52:59.018Z,25.35
2018-06-03T13:58:02.186Z,27.15
2018-06-03T14:03:05.317Z,26.68
2018-06-03T14:08:08.543Z,27.40
2018-06-03T14:13:11.663Z,26.01
2018-06-03T14:18:14.899Z,25.55
2018-06-03T14:23:18.255Z,25.26
2018-06-03T14:28:21.418Z,26.12
2018-06-03T14:33:24.639Z,27.36
2018-06-03T14:38:28.505Z,26.87
2018-06-03T14:43:31.655Z,26.66
2018-06-03T14:48:34.783Z,27.57
2018-06-03T14:53:37.935Z,28.59
2018-06-03T14:58:41.002Z,28.53
2018-06-03T15:03:45.085Z,27.94
2018-06-03T15:08:48.415Z,26.86
2018-06-03T15:13:51.740Z,27.38
2018-06-03T15:18:55.072Z,26.28
2018-06-03T15:23:58.218Z,26.62
2018-06-03T15:29:01.372Z,27.92
2018-06-03T15:34:04.550Z,27.64
2018-06-03T15:39:08.225Z,27.77
2018-06-03T15:44:11.412Z,26.61
2018-06-03T15:49:15.460Z,27.06
2018-06-03T15:54:19.144Z,27.80
2018-06-03T15:59:22.572Z,27.86
2018-06-03T16:04:25.992Z,26.62
2018-06-03T16:09:30.818Z,25.59
2018-06-03T16:14:34.177Z,25.47
2018-06-03T16:19:37.278Z,25.23
2018-06-03T16:24:40.443Z,24.59
2018-06-03T16:29:43.724Z,24.40
2018-06-03T16:34:47.063Z,24.66
2018-06-03T16:39:50.403Z,24.37
2018-06-03T16:44:53.585Z,24.26
2018-06-03T16:49:56.850Z,23.87
2018-06-03T16:55:00.015Z,23.84
2018-06-03T17:00:03.257Z,23.80
2018-06-03T17:05:06.654Z,23.86
2018-06-03T17:10:09.856Z,23.69
2018-06-03T17:15:12.943Z,23.72
2018-06-03T17:20:16.229Z,23.89
2018-06-03T17:25:19.748Z,24.06
2018-06-03T17:30:25.760Z,23.99
2018-06-03T17:35:32.805Z,23.60
2018-06-03T17:40:36.152Z,23.54
2018-06-03T17:45:40.020Z,23.31
2018-06-03T17:50:43.969Z,23.25
2018-06-03T17:55:48.194Z,23.30
2018-06-03T18:00:51.500Z,23.55
2018-06-03T18:05:54.770Z,23.83
2018-06-03T18:10:58.653Z,23.63
2018-06-03T18:16:02.280Z,23.10
2018-06-03T18:21:07.909Z,23.27
2018-06-03T18:26:11.629Z,23.34
2018-06-03T18:31:18.244Z,23.10
2018-06-03T18:36:21.479Z,22.95
2018-06-03T18:41:26.449Z,22.52
2018-06-03T18:46:31.341Z,22.32
2018-06-03T18:51:37.184Z,21.88
2018-06-03T18:56:40.862Z,21.54
2018-06-03T19:01:48.841Z,21.32
2018-06-03T19:06:52.571Z,21.00
2018-06-03T19:11:56.047Z,20.89
2018-06-03T19:16:59.175Z,20.79
2018-06-03T19:22:02.352Z,20.56
2018-06-03T19:27:05.944Z,20.33
2018-06-03T19:32:10.042Z,20.11
2018-06-03T19:37:13.345Z,19.91
2018-06-03T19:42:16.730Z,19.73
2018-06-03T19:47:20.756Z,19.64
2018-06-03T19:52:27.069Z,19.58
2018-06-03T19:57:31.469Z,19.24
2018-06-03T20:02:34.704Z,19.09
2018-06-03T20:07:37.818Z,18.81
2018-06-03T20:12:45.834Z,18.59
2018-06-03T20:17:50.245Z,18.39
2018-06-03T20:22:54.270Z,18.34
2018-06-03T20:27:59.241Z,18.14
2018-06-03T20:33:02.523Z,17.97
2018-06-03T20:38:05.620Z,17.85
2018-06-03T20:43:09.819Z,17.89
2018-06-03T20:48:13.123Z,17.80
2018-06-03T20:53:16.575Z,17.69
2018-06-03T20:58:35.601Z,17.54
2018-06-03T21:03:44.174Z,17.47
2018-06-03T21:08:55.061Z,17.35
2018-06-03T21:14:03.602Z,17.24
2018-06-03T21:19:08.586Z,17.20
2018-06-03T21:24:11.781Z,17.17
2018-06-03T21:29:16.152Z,17.03
2018-06-03T21:34:19.413Z,16.92
2018-06-03T21:39:22.620Z,16.90
2018-06-03T21:44:25.760Z,16.91
2018-06-03T21:49:28.855Z,16.89
2018-06-03T21:54:31.950Z,16.84
2018-06-03T21:59:35.064Z,16.74
2018-06-03T22:04:38.198Z,16.63
2018-06-03T22:09:44.670Z,16.65
2018-06-03T22:14:49.452Z,16.73
2018-06-03T22:19:52.858Z,16.53
2018-06-03T22:24:55.954Z,16.48
2018-06-03T22:29:59.067Z,16.42
2018-06-03T22:35:02.299Z,16.46
2018-06-03T22:40:05.422Z,16.31
2018-06-03T22:45:08.772Z,16.21
2018-06-03T22:50:11.901Z,16.13
2018-06-03T22:55:15.198Z,16.09
2018-06-03T23:00:19.417Z,16.01
2018-06-03T23:05:23.296Z,15.95
2018-06-03T23:10:26.417Z,15.86
2018-06-03T23:15:29.537Z,15.82
2018-06-03T23:20:32.637Z,15.83
2018-06-03T23:25:35.738Z,15.78
2018-06-03T23:30:39.711Z,15.78
2018-06-03T23:35:43.614Z,15.75
2018-06-03T23:40:47.317Z,15.70
2018-06-03T23:45:50.849Z,15.67
2018-06-03T23:50:54.092Z,15.62
2018-06-03T23:55:57.231Z,15.58
